Time;durP1;ratioP1;P1;durP2;ratioP2;P2;SDS_P1;SDS_P2;PMS_P1;PMS_P2;Temp;Humidity;BMP_temperature;BMP_pressure;BME280_temperature;BME280_humidity;BME280_pressure;Samples;Min_cycle;Max_cycle;Signal;HPM_P1;HPM_P2
2022/05/07 00:00:20;;;;;;;2.20;1.07;;;14.70;48.20;;;;;;5052862;28;20544;-76
2022/05/07 00:02:50;;;;;;;11.77;1.20;;;14.70;48.80;;;;;;5061514;28;20176;-77
2022/05/07 00:05:19;;;;;;;1.67;1.07;;;14.70;48.30;;;;;;5063501;28;20234;-77
2022/05/07 00:07:47;;;;;;;1.53;0.90;;;14.70;49.00;;;;;;5082894;28;20243;-81
2022/05/07 00:10:15;;;;;;;1.57;0.73;;;14.70;49.90;;;;;;5082709;28;20203;-84
2022/05/07 00:12:42;;;;;;;1.87;0.90;;;14.70;47.90;;;;;;5073077;28;20175;-82
2022/05/07 00:15:14;;;;;;;1.10;0.90;;;14.80;48.90;;;;;;5073204;28;20168;-80
2022/05/07 00:20:28;;;;;;;1.87;1.10;;;14.80;48.40;;;;;;5077762;28;20676;-78
2022/05/07 00:23:07;;;;;;;1.30;1.00;;;14.90;48.70;;;;;;5078353;28;20647;-76
2022/05/07 00:25:34;;;;;;;2.27;0.87;;;15.10;47.60;;;;;;5093406;28;20259;-82
2022/05/07 00:28:02;;;;;;;1.83;0.80;;;15.00;47.40;;;;;;5092676;28;20214;-79
2022/05/07 00:30:29;;;;;;;4.10;1.20;;;15.00;47.80;;;;;;5059672;28;20192;-77
2022/05/07 00:32:57;;;;;;;1.73;1.00;;;15.20;47.70;;;;;;5070714;28;20237;-78
2022/05/07 00:35:25;;;;;;;1.73;1.10;;;15.30;48.20;;;;;;5056142;28;20546;-74
2022/05/07 00:37:52;;;;;;;1.00;0.70;;;15.50;46.70;;;;;;5066801;28;20188;-78
2022/05/07 00:40:19;;;;;;;2.90;0.90;;;15.40;45.50;;;;;;5070978;28;20239;-79
2022/05/07 00:42:48;;;;;;;1.00;0.83;;;15.50;45.50;;;;;;5068013;28;20231;-76
2022/05/07 00:45:15;;;;;;;1.67;0.80;;;15.60;45.20;;;;;;5079677;28;20213;-76
2022/05/07 00:47:43;;;;;;;2.00;1.00;;;15.40;45.80;;;;;;5080434;28;20215;-78
2022/05/07 00:52:56;;;;;;;0.90;0.80;;;15.00;45.70;;;;;;5082095;28;20281;-78
2022/05/07 00:55:25;;;;;;;3.10;1.30;;;15.10;46.20;;;;;;5053501;28;20221;-78
2022/05/07 00:57:55;;;;;;;3.07;0.97;;;15.20;46.30;;;;;;5072541;28;20262;-79
2022/05/07 01:00:23;;;;;;;1.17;0.90;;;15.10;46.10;;;;;;5078710;28;20179;-76
2022/05/07 01:02:50;;;;;;;2.77;0.90;;;15.20;46.40;;;;;;5072811;28;20828;-77
2022/05/07 01:05:18;;;;;;;5.93;1.00;;;15.30;45.90;;;;;;5070737;28;20336;-75
2022/05/07 01:07:46;;;;;;;2.57;1.23;;;15.30;45.90;;;;;;5066893;28;20206;-74
2022/05/07 01:10:14;;;;;;;2.90;1.00;;;15.70;45.70;;;;;;5080949;28;20743;-73
2022/05/07 01:12:42;;;;;;;4.47;1.40;;;15.80;44.70;;;;;;5056187;28;20199;-77
2022/05/07 01:15:13;;;;;;;1.00;0.90;;;15.90;44.50;;;;;;5083102;28;20188;-74
2022/05/07 01:17:41;;;;;;;1.03;0.90;;;15.90;44.80;;;;;;5073873;28;20187;-76
2022/05/07 01:20:10;;;;;;;5.10;1.60;;;16.00;44.60;;;;;;5066699;28;20186;-75
2022/05/07 01:22:38;;;;;;;2.20;1.60;;;15.80;45.40;;;;;;5070177;28;20674;-74
2022/05/07 01:25:06;;;;;;;6.47;5.83;;;16.00;45.70;;;;;;5075867;28;20177;-75
2022/05/07 01:27:34;;;;;;;2.03;1.10;;;16.00;45.40;;;;;;5070550;28;20204;-76
2022/05/07 01:30:01;;;;;;;0.93;0.80;;;15.80;44.50;;;;;;5078948;28;20194;-74
2022/05/07 01:32:29;;;;;;;1.57;1.03;;;15.70;45.40;;;;;;5076299;28;20203;-77
2022/05/07 01:34:56;;;;;;;3.40;1.10;;;15.90;46.10;;;;;;5074738;28;20181;-75
2022/05/07 01:37:25;;;;;;;3.77;1.30;;;16.10;45.60;;;;;;5085240;28;20178;-82
2022/05/07 01:39:53;;;;;;;4.50;0.87;;;16.30;44.20;;;;;;5065813;28;20404;-75
2022/05/07 01:42:20;;;;;;;1.63;0.90;;;16.30;44.50;;;;;;5081984;28;20214;-84
2022/05/07 01:44:47;;;;;;;1.33;0.90;;;16.20;43.80;;;;;;5081777;28;20252;-79
2022/05/07 01:50:00;;;;;;;5.93;1.33;;;16.70;43.80;;;;;;5075811;28;20193;-75
2022/05/07 01:52:27;;;;;;;3.43;1.00;;;17.00;42.70;;;;;;5075357;28;20197;-79
2022/05/07 01:54:55;;;;;;;2.30;0.90;;;16.90;43.20;;;;;;5070739;28;20239;-75
2022/05/07 01:57:22;;;;;;;2.40;0.97;;;17.30;43.30;;;;;;5088530;28;20221;-78
2022/05/07 01:59:50;;;;;;;1.10;0.90;;;17.30;42.80;;;;;;5082004;28;20183;-74
2022/05/07 02:02:17;;;;;;;4.83;2.63;;;17.50;42.90;;;;;;5075132;28;20233;-75
2022/05/07 02:04:44;;;;;;;1.80;0.80;;;17.80;42.60;;;;;;5075478;28;20166;-76
2022/05/07 02:07:12;;;;;;;5.90;1.17;;;17.70;42.00;;;;;;5075522;28;20172;-78
2022/05/07 02:09:39;;;;;;;2.63;1.17;;;17.60;42.00;;;;;;5071808;28;20179;-77
2022/05/07 02:12:07;;;;;;;10.70;4.77;;;17.80;43.10;;;;;;5070536;28;20172;-79
2022/05/07 02:14:35;;;;;;;2.20;0.90;;;17.80;41.90;;;;;;5078018;28;20648;-77
2022/05/07 02:17:02;;;;;;;1.97;0.77;;;18.10;41.50;;;;;;5094044;28;20221;-75
2022/05/07 02:19:30;;;;;;;5.50;0.93;;;18.10;41.70;;;;;;5095156;28;20224;-75
2022/05/07 02:22:03;;;;;;;3.83;0.97;;;18.00;41.80;;;;;;5077640;28;20270;-76
2022/05/07 02:24:30;;;;;;;3.50;0.87;;;18.20;41.70;;;;;;5068476;28;20180;-78
2022/05/07 02:26:59;;;;;;;2.80;1.10;;;18.30;41.20;;;;;;5071621;28;20634;-74
2022/05/07 02:29:26;;;;;;;1.50;1.00;;;18.20;42.30;;;;;;5074832;28;20229;-76
2022/05/07 02:32:06;;;;;;;0.90;0.80;;;18.50;39.80;;;;;;5074369;28;20250;-76
2022/05/07 02:34:35;;;;;;;2.13;0.77;;;18.70;39.90;;;;;;5062948;28;20194;-76
2022/05/07 02:37:04;;;;;;;2.97;1.00;;;18.60;39.60;;;;;;5076561;28;20179;-76
2022/05/07 02:39:40;;;;;;;3.20;1.20;;;18.60;39.90;;;;;;5074296;28;20195;-76
2022/05/07 02:44:53;;;;;;;4.87;1.03;;;18.80;40.70;;;;;;5074930;28;20194;-75
2022/05/07 02:47:20;;;;;;;2.40;0.80;;;18.80;40.20;;;;;;5073898;28;20217;-78
2022/05/07 02:49:48;;;;;;;1.80;0.70;;;18.60;40.40;;;;;;5068570;28;20274;-76
2022/05/07 02:52:15;;;;;;;2.33;0.93;;;18.50;40.50;;;;;;5072304;28;20590;-78
2022/05/07 02:54:43;;;;;;;1.57;0.97;;;18.70;40.40;;;;;;5070530;28;20206;-75
2022/05/07 02:57:10;;;;;;;3.13;0.97;;;19.00;40.80;;;;;;5077031;28;20170;-77
2022/05/07 02:59:38;;;;;;;1.70;1.00;;;19.50;40.40;;;;;;5073301;28;20579;-76
2022/05/07 03:02:07;;;;;;;3.73;1.20;;;19.60;38.80;;;;;;5072931;28;20214;-78
2022/05/07 03:04:35;;;;;;;2.30;0.93;;;19.60;39.40;;;;;;5074542;28;20188;-77
2022/05/07 03:07:02;;;;;;;1.73;0.90;;;19.70;39.30;;;;;;5074070;28;20645;-82
2022/05/07 03:09:30;;;;;;;1.73;0.83;;;19.80;38.20;;;;;;5073534;28;20191;-75
2022/05/07 03:11:57;;;;;;;2.00;0.83;;;19.90;39.30;;;;;;5057087;28;20192;-76
2022/05/07 03:14:25;;;;;;;2.90;0.90;;;20.20;38.70;;;;;;5072876;28;20236;-77
2022/05/07 03:16:52;;;;;;;1.00;0.70;;;20.60;37.80;;;;;;5067816;28;20673;-75
2022/05/07 03:19:20;;;;;;;5.53;0.80;;;21.00;35.80;;;;;;5078618;28;20663;-78
2022/05/07 03:21:47;;;;;;;1.90;0.80;;;20.80;36.00;;;;;;5072204;28;20187;-77
2022/05/07 03:24:15;;;;;;;3.20;0.80;;;20.90;36.20;;;;;;5080639;28;20178;-74
2022/05/07 03:26:43;;;;;;;2.27;1.50;;;21.20;36.10;;;;;;5088448;28;20254;-83
2022/05/07 03:29:10;;;;;;;1.27;0.90;;;21.10;35.80;;;;;;5080851;28;20214;-76
2022/05/07 03:31:39;;;;;;;2.47;0.93;;;20.90;35.90;;;;;;5071556;28;20586;-75
2022/05/07 03:34:08;;;;;;;2.10;0.90;;;20.70;35.90;;;;;;5066754;28;20845;-72
2022/05/07 03:36:36;;;;;;;5.60;1.10;;;20.70;36.90;;;;;;5056273;28;20187;-80
2022/05/07 03:39:06;;;;;;;3.17;0.77;;;20.90;36.10;;;;;;5062120;28;20228;-80
2022/05/07 03:41:34;;;;;;;2.23;0.90;;;21.00;35.10;;;;;;5054164;28;20199;-74
2022/05/07 03:44:01;;;;;;;3.37;0.70;;;20.70;35.80;;;;;;5053624;28;20187;-76
2022/05/07 03:46:29;;;;;;;1.10;0.77;;;20.30;35.60;;;;;;5057130;28;20508;-77
2022/05/07 03:48:57;;;;;;;4.53;0.70;;;20.60;35.90;;;;;;5085406;28;20239;-73
2022/05/07 03:53:29;;;;;;;0.90;0.83;;;21.00;36.20;;;;;;5089706;28;20169;-76
2022/05/07 03:54:14;;;;;;;1.27;0.70;;;21.20;35.10;;;;;;5064926;28;20182;-79
2022/05/07 03:56:42;;;;;;;1.40;0.60;;;21.30;34.90;;;;;;5082178;28;20231;-76
2022/05/07 03:59:09;;;;;;;2.73;0.70;;;22.00;34.40;;;;;;5071246;28;20555;-76
2022/05/07 04:01:36;;;;;;;3.93;0.90;;;22.10;33.30;;;;;;5072675;28;20495;-75
2022/05/07 04:04:10;;;;;;;3.43;0.60;;;22.00;33.60;;;;;;5088680;28;20641;-83
2022/05/07 04:06:37;;;;;;;2.40;0.70;;;22.20;33.90;;;;;;5092200;28;20175;-74
2022/05/07 04:09:05;;;;;;;1.07;0.70;;;22.10;33.10;;;;;;5090130;28;20213;-77
2022/05/07 04:11:33;;;;;;;1.43;0.77;;;21.20;34.60;;;;;;5087991;28;20213;-75
2022/05/07 04:14:00;;;;;;;1.50;0.60;;;22.10;32.60;;;;;;5093203;28;20167;-77
2022/05/07 04:16:27;;;;;;;1.23;0.50;;;22.80;32.50;;;;;;5090511;28;20753;-77
2022/05/07 04:18:55;;;;;;;3.50;0.70;;;23.10;30.70;;;;;;5093158;28;20182;-76
2022/05/07 04:21:22;;;;;;;2.60;1.47;;;23.30;31.40;;;;;;5085489;28;20183;-76
2022/05/07 04:23:50;;;;;;;1.00;0.60;;;23.40;30.90;;;;;;5067758;28;20184;-78
2022/05/07 04:26:17;;;;;;;1.20;0.80;;;23.60;29.60;;;;;;5057150;28;20200;-77
2022/05/07 04:28:45;;;;;;;1.17;0.70;;;23.60;29.30;;;;;;5052628;28;20706;-81
2022/05/07 04:31:15;;;;;;;0.87;0.50;;;23.30;30.40;;;;;;5056008;28;20182;-76
2022/05/07 04:33:43;;;;;;;0.77;0.50;;;23.10;31.00;;;;;;5070343;28;20182;-77
2022/05/07 04:36:10;;;;;;;2.10;0.40;;;23.50;29.00;;;;;;5064400;28;20175;-77
2022/05/07 04:38:38;;;;;;;0.93;0.60;;;22.80;29.80;;;;;;5091485;28;20273;-76
2022/05/07 04:41:05;;;;;;;1.20;0.47;;;22.80;30.20;;;;;;5082358;28;20186;-78
2022/05/07 04:43:33;;;;;;;0.77;0.40;;;22.20;30.40;;;;;;5072594;28;20222;-79
2022/05/07 04:46:01;;;;;;;4.47;0.67;;;21.50;31.40;;;;;;5072371;28;20270;-79
2022/05/07 04:48:29;;;;;;;0.80;0.60;;;21.00;32.40;;;;;;5072473;28;20219;-79
2022/05/07 04:50:56;;;;;;;0.70;0.47;;;20.60;33.40;;;;;;5081499;28;20223;-77
2022/05/07 04:53:23;;;;;;;3.13;0.50;;;20.80;33.20;;;;;;5080834;28;20218;-80
2022/05/07 04:55:51;;;;;;;0.70;0.60;;;21.50;32.60;;;;;;5084504;28;20273;-76
2022/05/07 04:58:33;;;;;;;2.60;0.70;;;22.50;31.20;;;;;;5099234;28;20273;-76
2022/05/07 05:01:01;;;;;;;1.67;0.50;;;22.80;29.80;;;;;;5097985;28;20609;-77
2022/05/07 05:03:28;;;;;;;0.60;0.40;;;22.80;29.60;;;;;;5099236;28;20178;-79
2022/05/07 05:05:55;;;;;;;0.30;0.30;;;22.60;29.20;;;;;;5099229;28;20186;-78
2022/05/07 05:08:27;;;;;;;0.70;0.40;;;22.80;29.10;;;;;;5098416;28;20209;-73
2022/05/07 05:11:15;;;;;;;0.93;0.47;;;22.90;29.40;;;;;;5091808;28;20232;-81
2022/05/07 05:13:42;;;;;;;0.97;0.50;;;22.70;28.80;;;;;;5064386;28;20187;-75
2022/05/07 05:16:10;;;;;;;3.10;0.40;;;21.80;28.80;;;;;;5058765;28;20195;-76
2022/05/07 05:18:37;;;;;;;3.03;0.50;;;22.00;29.50;;;;;;5084288;28;20269;-79
2022/05/07 05:21:04;;;;;;;2.63;0.50;;;22.20;29.90;;;;;;5087860;28;20186;-79
2022/05/07 05:23:32;;;;;;;1.27;0.50;;;22.30;29.20;;;;;;5078552;28;20524;-82
2022/05/07 05:26:05;;;;;;;4.50;0.73;;;21.60;30.70;;;;;;5079972;28;20186;-77
2022/05/07 05:28:33;;;;;;;2.83;0.60;;;20.80;32.80;;;;;;5099230;28;20696;-79
2022/05/07 05:31:00;;;;;;;1.17;0.60;;;20.90;33.40;;;;;;5097675;28;20178;-79
2022/05/07 05:33:28;;;;;;;2.20;0.70;;;21.20;32.50;;;;;;5093959;28;20190;-81
2022/05/07 05:35:55;;;;;;;0.87;0.53;;;21.20;33.20;;;;;;5073752;28;20183;-81
2022/05/07 05:38:26;;;;;;;3.70;0.80;;;21.00;32.00;;;;;;5086736;28;20171;-79
2022/05/07 05:40:53;;;;;;;1.17;0.50;;;20.80;32.40;;;;;;5078865;28;20186;-82
2022/05/07 05:43:20;;;;;;;1.80;0.57;;;21.20;29.10;;;;;;5078293;28;20219;-88
2022/05/07 05:45:57;;;;;;;0.77;0.57;;;21.30;28.40;;;;;;5078643;28;20251;-79
2022/05/07 05:48:36;;;;;;;1.37;0.53;;;21.90;27.60;;;;;;5078753;28;20183;-77
2022/05/07 05:51:33;;;;;;;1.40;0.80;;;22.10;27.70;;;;;;5079493;28;20219;-77
2022/05/07 05:54:01;;;;;;;0.60;0.50;;;21.90;27.20;;;;;;5080080;28;20178;-79
2022/05/07 05:56:28;;;;;;;1.10;0.50;;;22.20;27.70;;;;;;5098617;28;20757;-78
2022/05/07 05:58:55;;;;;;;1.47;0.67;;;21.90;28.50;;;;;;5095665;28;20663;-84
2022/05/07 06:01:23;;;;;;;0.40;0.40;;;22.20;28.20;;;;;;5076742;28;20194;-79
2022/05/07 06:03:50;;;;;;;5.77;0.87;;;22.10;28.10;;;;;;5066257;28;20191;-81
2022/05/07 06:06:18;;;;;;;1.07;0.60;;;22.00;28.50;;;;;;5071483;28;20471;-78
2022/05/07 06:08:46;;;;;;;1.90;0.43;;;21.20;29.90;;;;;;5075084;28;20223;-81
2022/05/07 06:11:13;;;;;;;0.77;0.40;;;20.30;31.60;;;;;;5075712;28;20175;-76
2022/05/07 06:13:43;;;;;;;2.43;0.77;;;19.80;32.70;;;;;;5075932;28;20190;-81
2022/05/07 06:16:10;;;;;;;1.70;0.60;;;19.50;33.70;;;;;;5075639;28;20200;-80
2022/05/07 06:18:38;;;;;;;5.33;0.60;;;19.30;34.10;;;;;;5090570;28;20187;-81
2022/05/07 06:21:05;;;;;;;2.10;0.50;;;19.10;34.60;;;;;;5090694;28;20257;-80
2022/05/07 06:23:33;;;;;;;0.93;0.50;;;19.00;34.40;;;;;;5075976;28;20271;-78
2022/05/07 06:28:47;;;;;;;0.83;0.60;;;18.80;35.60;;;;;;5075518;28;20300;-78
2022/05/07 06:31:17;;;;;;;1.90;0.70;;;18.60;36.60;;;;;;5080246;28;20545;-76
2022/05/07 06:33:45;;;;;;;0.97;0.70;;;18.40;37.20;;;;;;5090505;28;20170;-81
2022/05/07 06:36:13;;;;;;;1.93;0.90;;;18.30;37.10;;;;;;5066373;28;20545;-76
2022/05/07 06:38:40;;;;;;;1.40;0.70;;;18.20;37.90;;;;;;5075316;28;20183;-80
2022/05/07 06:41:19;;;;;;;2.63;0.90;;;18.00;37.80;;;;;;5077888;28;20649;-80
2022/05/07 06:43:46;;;;;;;2.10;1.40;;;17.80;37.70;;;;;;5071756;28;20233;-77
2022/05/07 06:46:13;;;;;;;1.37;1.00;;;17.80;38.80;;;;;;5088005;28;20182;-79
2022/05/07 06:48:41;;;;;;;2.10;1.20;;;17.70;38.40;;;;;;5090088;28;20213;-81
2022/05/07 06:51:08;;;;;;;2.80;1.10;;;17.60;39.00;;;;;;5074800;28;20259;-78
2022/05/07 06:53:35;;;;;;;3.03;0.83;;;17.60;39.10;;;;;;5075354;28;20183;-77
2022/05/07 06:56:03;;;;;;;2.00;1.00;;;17.40;39.10;;;;;;5084017;28;20202;-75
2022/05/07 06:58:34;;;;;;;3.13;0.80;;;17.30;39.40;;;;;;5070105;28;20197;-77
2022/05/07 07:01:07;;;;;;;1.83;0.83;;;17.20;39.90;;;;;;5080264;28;20533;-76
2022/05/07 07:03:34;;;;;;;2.23;1.10;;;17.10;39.60;;;;;;5074269;28;20264;-77
2022/05/07 07:06:02;;;;;;;1.70;0.93;;;17.00;40.30;;;;;;5072411;28;20171;-77
2022/05/07 07:08:30;;;;;;;1.30;0.90;;;17.00;40.70;;;;;;5068179;28;20223;-75
2022/05/07 07:10:58;;;;;;;4.07;1.00;;;16.80;40.40;;;;;;5075139;28;20190;-75
2022/05/07 07:13:25;;;;;;;3.23;1.20;;;16.80;40.60;;;;;;5069770;28;20213;-74
2022/05/07 07:15:52;;;;;;;2.40;1.10;;;16.70;41.00;;;;;;5092092;28;20657;-76
2022/05/07 07:19:15;;;;;;;;;;;;;;;;;;;;;
2022/05/07 07:21:43;;;;;;;2.20;1.10;;;16.60;41.50;;;;;;5077364;28;20208;-77
2022/05/07 07:24:11;;;;;;;1.97;1.17;;;16.50;41.70;;;;;;5081195;28;20537;-78
2022/05/07 07:26:41;;;;;;;5.20;1.60;;;16.40;42.40;;;;;;5073564;28;20171;-77
2022/05/07 07:29:08;;;;;;;2.20;1.40;;;16.40;42.60;;;;;;5076482;28;20231;-76
2022/05/07 07:31:36;;;;;;;4.47;1.80;;;16.30;42.60;;;;;;5079019;28;20183;-77
2022/05/07 07:34:06;;;;;;;2.33;1.63;;;16.30;43.60;;;;;;5071688;28;20224;-78
2022/05/07 07:36:57;;;;;;;3.60;1.50;;;16.20;43.20;;;;;;5073817;28;20208;-78
2022/05/07 07:39:25;;;;;;;4.37;1.70;;;16.20;43.20;;;;;;5088122;28;20197;-78
2022/05/07 07:41:52;;;;;;;1.70;1.30;;;16.10;43.60;;;;;;5084619;28;20261;-76
2022/05/07 07:44:20;;;;;;;2.13;1.13;;;16.00;43.70;;;;;;5073711;28;20229;-77
2022/05/07 07:49:33;;;;;;;2.80;1.50;;;15.90;42.90;;;;;;5078449;28;20225;-81
2022/05/07 07:52:36;;;;;;;3.37;1.30;;;15.90;42.70;;;;;;5071705;28;20190;-77
2022/05/07 07:55:04;;;;;;;2.47;1.30;;;15.90;43.00;;;;;;5075435;28;20192;-78
2022/05/07 07:57:31;;;;;;;4.47;1.50;;;15.80;43.10;;;;;;5080757;28;20180;-76
2022/05/07 07:59:59;;;;;;;3.97;2.00;;;15.80;43.70;;;;;;5072888;28;20185;-77
2022/05/07 08:02:26;;;;;;;3.33;1.73;;;15.70;43.40;;;;;;5072983;28;20177;-76
2022/05/07 08:04:55;;;;;;;2.83;1.70;;;15.70;43.90;;;;;;5071604;28;20211;-76
2022/05/07 08:12:55;;;;;;;3.23;1.70;;;15.60;43.30;;;;;;5055880;28;20181;-76
2022/05/07 08:15:23;;;;;;;3.73;1.93;;;15.50;43.50;;;;;;5071641;28;20532;-77
2022/05/07 08:17:52;;;;;;;3.30;2.40;;;15.40;43.50;;;;;;5072114;28;20534;-76
2022/05/07 08:20:20;;;;;;;3.27;1.87;;;15.50;43.80;;;;;;5085456;28;20237;-77
2022/05/07 08:22:47;;;;;;;2.20;1.60;;;15.40;43.80;;;;;;5076977;28;20177;-76
2022/05/07 08:25:14;;;;;;;3.70;1.90;;;15.30;44.20;;;;;;5082221;28;20668;-79
2022/05/07 08:27:42;;;;;;;1.83;1.43;;;15.30;44.70;;;;;;5085657;28;20211;-78
2022/05/07 08:30:09;;;;;;;2.80;1.70;;;15.30;44.40;;;;;;5072350;28;20176;-77
2022/05/07 08:32:37;;;;;;;2.67;1.50;;;15.30;44.40;;;;;;5086648;28;20597;-76
2022/05/07 08:35:05;;;;;;;3.40;1.93;;;15.30;44.80;;;;;;5073676;28;20176;-77
2022/05/07 08:37:32;;;;;;;8.97;1.87;;;15.20;44.70;;;;;;5071816;28;20183;-79
2022/05/07 08:40:01;;;;;;;2.33;1.50;;;15.20;44.50;;;;;;5071494;28;20167;-76
2022/05/07 08:42:30;;;;;;;1.93;1.53;;;15.20;45.40;;;;;;5072057;28;20273;-77
2022/05/07 08:44:58;;;;;;;4.17;1.50;;;15.20;45.20;;;;;;5077815;28;20537;-76
2022/05/07 08:47:25;;;;;;;3.83;1.60;;;15.20;44.90;;;;;;5072048;28;20535;-75
2022/05/07 08:49:53;;;;;;;3.10;1.73;;;15.10;45.20;;;;;;5079775;28;20188;-77
2022/05/07 08:52:22;;;;;;;1.93;1.37;;;15.10;44.90;;;;;;5081935;28;20651;-77
2022/05/07 08:54:49;;;;;;;3.97;1.40;;;15.10;44.70;;;;;;5086712;28;20180;-74
2022/05/07 08:57:17;;;;;;;3.03;1.40;;;15.00;44.60;;;;;;5072148;28;20182;-75
2022/05/07 08:59:44;;;;;;;3.63;1.77;;;15.10;44.80;;;;;;5074850;28;20182;-75
2022/05/07 09:02:12;;;;;;;3.27;1.40;;;15.00;44.90;;;;;;5068729;28;20590;-75
2022/05/07 09:04:39;;;;;;;2.60;1.63;;;15.00;45.00;;;;;;5071768;28;20186;-76
2022/05/07 09:07:15;;;;;;;2.23;1.53;;;15.00;44.90;;;;;;5071870;28;20177;-76
2022/05/07 09:09:50;;;;;;;2.73;1.80;;;14.90;45.10;;;;;;5070150;28;20216;-76
2022/05/07 09:12:26;;;;;;;3.13;1.90;;;14.90;45.10;;;;;;5064201;28;20642;-77
2022/05/07 09:14:53;;;;;;;3.33;1.97;;;14.80;45.20;;;;;;5071869;28;20191;-76
2022/05/07 09:17:21;;;;;;;2.07;1.40;;;14.80;45.40;;;;;;5077227;28;20667;-75
2022/05/07 09:19:48;;;;;;;2.17;1.60;;;14.80;45.50;;;;;;5081275;28;20658;-75
2022/05/07 09:22:15;;;;;;;2.33;1.53;;;14.80;45.90;;;;;;5071688;28;20180;-77
2022/05/07 09:24:56;;;;;;;2.20;1.30;;;14.70;46.00;;;;;;5072424;28;20176;-76
2022/05/07 09:27:23;;;;;;;2.47;1.40;;;14.80;45.90;;;;;;5072193;28;20193;-77
2022/05/07 09:30:02;;;;;;;1.30;1.20;;;14.70;45.50;;;;;;5071861;28;20230;-77
2022/05/07 09:32:36;;;;;;;2.80;1.40;;;14.80;45.10;;;;;;5071384;28;20189;-75
2022/05/07 09:38:01;;;;;;;2.07;1.50;;;14.80;44.70;;;;;;5058951;28;20609;-76
2022/05/07 09:40:37;;;;;;;2.00;1.60;;;14.80;45.50;;;;;;5074685;28;20191;-77
2022/05/07 09:43:05;;;;;;;3.37;1.47;;;14.80;45.30;;;;;;5095905;28;20226;-75
2022/05/07 09:45:32;;;;;;;1.73;1.23;;;14.70;45.70;;;;;;5087175;28;20187;-75
2022/05/07 09:48:00;;;;;;;3.10;1.40;;;14.70;46.00;;;;;;5092000;28;20218;-75
2022/05/07 09:58:41;;;;;;;2.90;1.67;;;14.50;45.60;;;;;;5083651;28;20190;-74
2022/05/07 10:01:30;;;;;;;2.13;1.20;;;14.40;47.30;;;;;;5074643;28;20199;-75
2022/05/07 10:04:22;;;;;;;4.67;1.53;;;14.50;45.90;;;;;;5073449;28;20233;-75
2022/05/07 10:07:07;;;;;;;2.10;1.20;;;14.40;46.10;;;;;;5075207;28;20676;-75
2022/05/07 10:10:02;;;;;;;2.20;1.37;;;14.30;46.60;;;;;;5074566;28;20211;-75
2022/05/07 10:12:32;;;;;;;1.43;1.30;;;14.30;47.10;;;;;;5075414;28;20188;-75
2022/05/07 10:15:12;;;;;;;2.37;1.53;;;14.30;47.20;;;;;;5070850;28;20184;-75
2022/05/07 10:17:40;;;;;;;1.73;1.40;;;14.30;48.00;;;;;;5074083;28;20222;-75
2022/05/07 10:20:09;;;;;;;3.60;1.63;;;14.20;47.50;;;;;;5073665;28;20246;-75
2022/05/07 10:22:37;;;;;;;1.83;1.50;;;14.20;48.00;;;;;;5074612;28;20264;-80
2022/05/07 10:25:13;;;;;;;3.27;1.70;;;14.10;48.10;;;;;;5074673;28;20183;-75
2022/05/07 10:27:44;;;;;;;3.23;1.80;;;14.10;48.30;;;;;;5074868;28;20210;-75
2022/05/07 10:30:21;;;;;;;3.33;1.80;;;14.00;48.40;;;;;;5074340;28;20634;-75
2022/05/07 10:33:18;;;;;;;4.87;2.13;;;14.00;49.40;;;;;;5075099;28;20175;-75
2022/05/07 10:35:54;;;;;;;3.37;1.80;;;13.90;50.00;;;;;;5074232;28;20271;-75
2022/05/07 10:38:38;;;;;;;1.97;1.70;;;13.90;50.30;;;;;;5074603;28;20178;-74
2022/05/07 10:41:07;;;;;;;3.37;1.90;;;13.90;50.30;;;;;;5074827;28;20173;-76
2022/05/07 10:44:02;;;;;;;3.03;1.53;;;13.80;50.80;;;;;;5074489;28;20310;-75
2022/05/07 10:46:43;;;;;;;4.00;1.80;;;13.80;50.40;;;;;;5074300;28;20163;-74
2022/05/07 10:49:11;;;;;;;3.70;1.90;;;13.80;51.20;;;;;;5074441;28;20627;-74
2022/05/07 10:51:50;;;;;;;6.67;1.80;;;13.70;51.40;;;;;;5074071;28;20176;-74
2022/05/07 10:54:21;;;;;;;3.53;1.60;;;13.60;51.50;;;;;;5064841;28;20263;-74
2022/05/07 10:56:51;;;;;;;5.47;1.70;;;13.60;51.30;;;;;;5064399;28;20268;-75
2022/05/07 10:59:20;;;;;;;3.10;2.00;;;13.60;51.50;;;;;;5074324;28;20259;-76
2022/05/07 11:01:48;;;;;;;2.27;1.70;;;13.60;51.50;;;;;;5074016;28;20176;-75
2022/05/07 11:04:18;;;;;;;2.70;2.10;;;13.60;51.90;;;;;;5062626;28;20246;-75
2022/05/07 11:06:48;;;;;;;3.07;1.90;;;13.60;52.60;;;;;;5074314;28;20206;-76
2022/05/07 11:09:23;;;;;;;4.47;1.97;;;13.60;52.80;;;;;;5074504;28;20577;-74
2022/05/07 11:11:53;;;;;;;2.10;1.30;;;13.50;53.90;;;;;;5074059;28;20171;-75
2022/05/07 11:14:30;;;;;;;3.97;1.73;;;13.50;54.40;;;;;;5074462;28;20579;-75
2022/05/07 11:16:59;;;;;;;2.43;1.80;;;13.50;54.60;;;;;;5074439;28;20175;-75
2022/05/07 11:19:32;;;;;;;3.03;2.10;;;13.40;55.50;;;;;;5074288;28;20689;-75
2022/05/07 11:22:01;;;;;;;4.80;2.13;;;13.30;54.70;;;;;;5074018;28;20217;-75
2022/05/07 11:24:33;;;;;;;3.40;2.17;;;13.20;55.40;;;;;;5074276;28;20221;-75
2022/05/07 11:27:13;;;;;;;3.50;2.30;;;13.10;56.30;;;;;;5073861;28;20206;-75
2022/05/07 11:29:40;;;;;;;3.80;1.93;;;13.00;56.80;;;;;;5072606;28;20275;-75
2022/05/07 11:32:09;;;;;;;1.93;1.60;;;13.00;56.50;;;;;;5075246;28;20324;-75
2022/05/07 11:34:38;;;;;;;2.47;1.77;;;12.90;57.70;;;;;;5073773;28;20171;-75
2022/05/07 11:37:23;;;;;;;2.93;1.67;;;12.90;56.80;;;;;;5073871;28;20171;-75
2022/05/07 11:40:00;;;;;;;4.80;1.67;;;12.90;57.80;;;;;;5073504;28;20791;-75
2022/05/07 11:42:49;;;;;;;2.13;1.63;;;12.90;57.80;;;;;;5072179;28;20225;-75
2022/05/07 11:45:29;;;;;;;2.90;1.60;;;12.90;58.90;;;;;;5065795;28;20179;-75
2022/05/07 11:48:23;;;;;;;3.10;2.07;;;12.80;58.30;;;;;;5074655;28;20214;-75
2022/05/07 11:51:01;;;;;;;4.83;2.13;;;12.80;59.00;;;;;;5078254;28;20567;-75
2022/05/07 11:53:30;;;;;;;4.73;2.13;;;12.80;59.50;;;;;;5076294;28;20183;-74
2022/05/07 11:56:07;;;;;;;3.23;2.20;;;12.80;60.10;;;;;;5073526;28;20569;-75
2022/05/07 11:58:47;;;;;;;6.60;3.00;;;12.80;60.30;;;;;;5072870;28;20181;-75
2022/05/07 12:01:28;;;;;;;4.73;2.23;;;12.70;60.10;;;;;;5072621;28;20183;-75
2022/05/07 12:03:55;;;;;;;7.00;2.63;;;12.70;60.00;;;;;;5073631;28;20178;-76
2022/05/07 12:06:29;;;;;;;3.07;2.43;;;12.60;60.50;;;;;;5073051;28;20168;-75
2022/05/07 12:08:57;;;;;;;4.93;2.77;;;12.60;60.60;;;;;;5088588;28;20246;-75
2022/05/07 12:11:24;;;;;;;5.57;3.07;;;12.70;60.60;;;;;;5078179;28;20229;-74
2022/05/07 12:13:52;;;;;;;4.07;2.67;;;12.60;60.50;;;;;;5072681;28;20186;-74
2022/05/07 12:19:13;;;;;;;6.97;2.70;;;12.60;59.80;;;;;;5072329;28;20191;-74
2022/05/07 12:29:56;;;;;;;3.57;2.23;;;12.60;59.60;;;;;;5069519;28;20198;-75
2022/05/07 12:32:24;;;;;;;3.03;2.13;;;12.50;59.10;;;;;;5072574;28;20232;-75
2022/05/07 12:34:52;;;;;;;2.63;1.97;;;12.50;59.20;;;;;;5072727;28;20258;-74
2022/05/07 12:37:20;;;;;;;2.63;1.90;;;12.50;58.80;;;;;;5072542;28;20179;-74
2022/05/07 12:39:47;;;;;;;4.17;2.40;;;12.50;59.10;;;;;;5072877;28;20183;-74
2022/05/07 12:42:15;;;;;;;4.30;1.80;;;12.50;59.00;;;;;;5071744;28;20231;-74
2022/05/07 12:44:44;;;;;;;3.03;1.90;;;12.50;59.50;;;;;;5057628;28;20266;-74
2022/05/07 12:47:11;;;;;;;3.73;2.27;;;12.40;59.30;;;;;;5072799;28;20503;-75
2022/05/07 12:49:39;;;;;;;3.17;2.00;;;12.40;59.40;;;;;;5072524;28;20223;-74
2022/05/07 12:52:10;;;;;;;5.50;2.10;;;12.40;59.70;;;;;;5071854;28;20305;-74
2022/05/07 12:54:38;;;;;;;2.57;1.80;;;12.40;59.60;;;;;;5071276;28;20186;-74
2022/05/07 12:57:06;;;;;;;4.33;2.13;;;12.30;60.80;;;;;;5072846;28;20655;-74
2022/05/07 12:59:33;;;;;;;2.50;2.10;;;12.30;60.60;;;;;;5071760;28;20695;-75
2022/05/07 13:02:06;;;;;;;3.17;1.93;;;12.20;60.70;;;;;;5072452;28;20178;-75
2022/05/07 13:04:34;;;;;;;4.37;2.40;;;12.20;60.40;;;;;;5072402;28;20176;-74
2022/05/07 13:07:02;;;;;;;5.20;2.00;;;12.10;60.60;;;;;;5071850;28;20209;-74
2022/05/07 13:09:29;;;;;;;4.70;2.33;;;12.00;62.10;;;;;;5072293;28;20582;-75
2022/05/07 13:11:57;;;;;;;4.57;2.33;;;12.00;61.80;;;;;;5075355;28;20179;-74
2022/05/07 13:14:24;;;;;;;4.37;2.10;;;11.90;62.50;;;;;;5074828;28;20187;-74
2022/05/07 13:16:52;;;;;;;4.20;2.37;;;12.00;63.00;;;;;;5076600;28;20541;-75
2022/05/07 13:19:19;;;;;;;5.30;2.40;;;12.00;63.60;;;;;;5080408;28;20593;-75
2022/05/07 13:21:47;;;;;;;2.83;2.30;;;11.90;62.90;;;;;;5075753;28;20220;-75
2022/05/07 13:24:15;;;;;;;4.10;2.30;;;11.90;63.40;;;;;;5056362;28;20233;-75
2022/05/07 13:26:43;;;;;;;4.00;2.50;;;11.90;62.40;;;;;;5095017;28;20221;-75
2022/05/07 13:29:11;;;;;;;3.50;2.33;;;12.00;62.70;;;;;;5091389;28;20661;-75
2022/05/07 13:31:39;;;;;;;8.90;3.23;;;12.00;63.00;;;;;;5075021;28;20418;-74
2022/05/07 13:34:06;;;;;;;3.70;2.50;;;12.00;62.80;;;;;;5074603;28;20186;-75
2022/05/07 13:36:34;;;;;;;6.70;2.80;;;11.90;63.20;;;;;;5075594;28;20179;-75
2022/05/07 13:39:01;;;;;;;6.90;2.43;;;11.90;63.70;;;;;;5071516;28;20687;-75
2022/05/07 13:41:29;;;;;;;4.83;2.43;;;11.90;63.80;;;;;;5065645;28;20198;-75
2022/05/07 13:44:00;;;;;;;7.00;2.80;;;11.90;63.80;;;;;;5074063;28;20716;-75
2022/05/07 13:46:28;;;;;;;4.93;2.80;;;11.80;63.70;;;;;;5073645;28;20190;-75